Time;durP1;ratioP1;P1;durP2;ratioP2;P2;SDS_P1;SDS_P2;PMS_P1;PMS_P2;Temp;Humidity;BMP_temperature;BMP_pressure;BME280_temperature;BME280_humidity;BME280_pressure;Samples;Min_cycle;Max_cycle;Signal;HPM_P1;HPM_P2
2022/12/09 00:01:34;;;;;;;5.00;4.78;;;;;;;;;;5034112;28;20045;-89
2022/12/09 00:04:00;;;;;;;4.10;3.90;;;;;;;;;;5033795;28;20049;-89
2022/12/09 00:06:27;;;;;;;5.55;5.25;;;;;;;;;;5034150;28;20050;-90
2022/12/09 00:08:56;;;;;;;8.48;5.03;;;;;;;;;;5034168;28;20045;-90
2022/12/09 00:11:23;;;;;;;7.82;6.55;;;;;;;;;;5048705;28;20051;-91
2022/12/09 00:13:50;;;;;;;5.28;4.85;;;;;;;;;;5053940;28;20053;-90
2022/12/09 00:16:17;;;;;;;3.60;3.30;;;;;;;;;;5053653;28;20522;-90
2022/12/09 00:18:43;;;;;;;4.30;4.05;;;;;;;;;;5053798;28;20433;-91
2022/12/09 00:21:13;;;;;;;6.97;4.18;;;;;;;;;;5041814;28;20053;-90
2022/12/09 00:23:40;;;;;;;4.35;4.05;;;;;;;;;;5033501;28;20057;-90
2022/12/09 00:26:08;;;;;;;3.38;3.08;;;;;;;;;;5042525;28;20099;-90
2022/12/09 00:28:34;;;;;;;7.30;4.60;;;;;;;;;;5033482;28;20099;-91
2022/12/09 00:31:01;;;;;;;4.82;4.50;;;;;;;;;;5043758;28;20052;-90
2022/12/09 00:33:29;;;;;;;12.07;3.47;;;;;;;;;;5053881;28;20057;-90
2022/12/09 00:35:56;;;;;;;5.35;5.05;;;;;;;;;;5053120;28;20260;-90
2022/12/09 00:38:22;;;;;;;5.68;5.38;;;;;;;;;;5052946;28;20045;-90
2022/12/09 00:40:49;;;;;;;3.97;3.70;;;;;;;;;;5053089;28;20055;-90
2022/12/09 00:43:16;;;;;;;6.97;3.80;;;;;;;;;;5053691;28;20469;-91
2022/12/09 00:45:44;;;;;;;2.75;2.58;;;;;;;;;;5052409;28;20495;-91
2022/12/09 00:48:11;;;;;;;7.55;4.95;;;;;;;;;;5053318;28;20102;-91
2022/12/09 00:50:37;;;;;;;9.80;3.88;;;;;;;;;;5053334;28;20448;-90
2022/12/09 00:53:04;;;;;;;4.63;4.38;;;;;;;;;;5052954;28;20048;-90
2022/12/09 00:55:30;;;;;;;5.03;4.03;;;;;;;;;;5052945;28;20452;-90
2022/12/09 00:57:57;;;;;;;4.40;4.18;;;;;;;;;;5054116;28;20053;-90
2022/12/09 01:00:25;;;;;;;2.97;2.78;;;;;;;;;;5072755;28;20049;-90
2022/12/09 01:02:51;;;;;;;5.50;5.07;;;;;;;;;;5053811;28;20187;-90
2022/12/09 01:05:18;;;;;;;2.13;2.03;;;;;;;;;;5052599;28;20560;-90
2022/12/09 01:07:44;;;;;;;3.20;3.00;;;;;;;;;;5052885;28;20103;-90
2022/12/09 01:10:11;;;;;;;4.50;4.20;;;;;;;;;;5051951;28;20044;-91
2022/12/09 01:12:38;;;;;;;4.07;3.75;;;;;;;;;;5047438;28;20494;-90
2022/12/09 01:15:07;;;;;;;3.53;3.33;;;;;;;;;;5052509;28;20048;-90
2022/12/09 01:17:35;;;;;;;3.45;3.30;;;;;;;;;;5051872;28;20057;-90
2022/12/09 01:20:02;;;;;;;5.85;5.13;;;;;;;;;;5052542;28;20075;-89
2022/12/09 01:22:29;;;;;;;3.30;2.97;;;;;;;;;;5032664;28;20037;-90
2022/12/09 01:24:55;;;;;;;3.70;3.40;;;;;;;;;;5032764;28;20129;-89
2022/12/09 01:27:22;;;;;;;6.00;5.70;;;;;;;;;;5032622;28;20495;-90
2022/12/09 01:29:48;;;;;;;7.03;5.20;;;;;;;;;;5041286;28;20054;-89
2022/12/09 01:32:15;;;;;;;3.67;3.08;;;;;;;;;;5036034;28;20111;-89
2022/12/09 01:34:43;;;;;;;7.50;3.83;;;;;;;;;;5034222;28;20049;-90
2022/12/09 01:37:09;;;;;;;4.57;4.18;;;;;;;;;;5047860;28;20061;-90
2022/12/09 01:39:36;;;;;;;4.53;2.53;;;;;;;;;;5052151;28;20481;-89
2022/12/09 01:42:04;;;;;;;5.10;4.78;;;;;;;;;;5051952;28;20053;-90
2022/12/09 01:44:31;;;;;;;3.78;3.55;;;;;;;;;;5052042;28;20099;-90
2022/12/09 01:46:58;;;;;;;3.10;2.90;;;;;;;;;;5052498;28;20556;-90
2022/12/09 01:49:26;;;;;;;4.47;4.18;;;;;;;;;;5052366;28;20045;-90
2022/12/09 01:51:58;;;;;;;3.50;3.25;;;;;;;;;;5050783;28;20044;-89
2022/12/09 01:54:24;;;;;;;6.53;4.75;;;;;;;;;;5051825;28;20083;-89
2022/12/09 01:56:51;;;;;;;3.22;2.90;;;;;;;;;;5051862;28;20099;-89
2022/12/09 01:59:18;;;;;;;3.95;3.75;;;;;;;;;;5051679;28;20494;-89
2022/12/09 02:01:45;;;;;;;3.30;2.95;;;;;;;;;;5051759;28;20045;-89
2022/12/09 02:04:12;;;;;;;4.85;4.45;;;;;;;;;;5051775;28;20494;-89
2022/12/09 02:06:38;;;;;;;4.43;4.00;;;;;;;;;;5042023;28;20099;-90
2022/12/09 02:09:07;;;;;;;3.90;3.60;;;;;;;;;;5031849;28;20046;-89
2022/12/09 02:11:39;;;;;;;3.95;3.53;;;;;;;;;;5031982;28;20054;-89
2022/12/09 02:14:08;;;;;;;6.25;5.85;;;;;;;;;;5031758;28;20054;-90
2022/12/09 02:16:37;;;;;;;3.30;3.10;;;;;;;;;;5032538;28;20077;-90
2022/12/09 02:19:11;;;;;;;3.35;3.05;;;;;;;;;;5031916;28;20042;-90
2022/12/09 02:21:42;;;;;;;4.47;4.22;;;;;;;;;;5032030;28;20057;-89
2022/12/09 02:24:13;;;;;;;2.63;2.42;;;;;;;;;;5039310;28;20041;-90
2022/12/09 02:26:41;;;;;;;4.07;3.80;;;;;;;;;;5052227;28;20495;-90
2022/12/09 02:29:24;;;;;;;3.75;3.55;;;;;;;;;;5051989;28;20057;-90
2022/12/09 02:32:05;;;;;;;3.97;3.53;;;;;;;;;;5051986;28;20057;-90
2022/12/09 02:34:34;;;;;;;7.38;6.97;;;;;;;;;;5049313;28;20049;-89
2022/12/09 02:37:05;;;;;;;4.18;3.45;;;;;;;;;;5051160;28;20049;-90
2022/12/09 02:39:35;;;;;;;4.78;4.57;;;;;;;;;;5042142;28;20099;-89
2022/12/09 02:42:03;;;;;;;2.75;2.55;;;;;;;;;;5031924;28;20049;-89
2022/12/09 02:44:30;;;;;;;3.17;2.97;;;;;;;;;;5031426;28;20557;-89
2022/12/09 02:46:57;;;;;;;3.80;3.60;;;;;;;;;;5031875;28;20054;-90
2022/12/09 02:49:25;;;;;;;3.80;3.58;;;;;;;;;;5033973;28;20099;-90
2022/12/09 02:51:53;;;;;;;2.97;2.75;;;;;;;;;;5035229;28;20057;-89
2022/12/09 02:54:20;;;;;;;4.50;4.20;;;;;;;;;;5035246;28;20874;-89
2022/12/09 02:56:50;;;;;;;5.15;4.72;;;;;;;;;;5039493;28;20050;-89
2022/12/09 02:59:16;;;;;;;4.85;4.47;;;;;;;;;;5035258;28;20053;-90
2022/12/09 03:01:47;;;;;;;3.92;3.63;;;;;;;;;;5035460;28;20095;-90
2022/12/09 03:04:17;;;;;;;4.50;4.20;;;;;;;;;;5035255;28;20045;-90
2022/12/09 03:06:46;;;;;;;2.85;2.65;;;;;;;;;;5042758;28;20100;-90
2022/12/09 03:09:18;;;;;;;4.05;3.75;;;;;;;;;;5055277;28;20079;-90
2022/12/09 03:11:45;;;;;;;3.58;3.45;;;;;;;;;;5054738;28;20053;-90
2022/12/09 03:14:13;;;;;;;2.53;2.40;;;;;;;;;;5041545;28;20548;-90
2022/12/09 03:16:41;;;;;;;2.42;2.33;;;;;;;;;;5041550;28;20057;-90
2022/12/09 03:19:12;;;;;;;2.25;2.15;;;;;;;;;;5054867;28;20472;-90
2022/12/09 03:21:38;;;;;;;;;;;;;;;;;;5055647;28;20048;-90
2022/12/09 03:24:07;;;;;;;2.92;2.80;;;;;;;;;;5054791;28;19925;-89
2022/12/09 03:26:37;;;;;;;3.75;3.45;;;;;;;;;;5054345;28;20490;-90
2022/12/09 03:29:04;;;;;;;2.05;1.92;;;;;;;;;;5054983;28;20536;-91
2022/12/09 03:31:31;;;;;;;5.05;2.45;;;;;;;;;;5038698;28;20111;-90
2022/12/09 03:34:00;;;;;;;7.40;3.60;;;;;;;;;;5039644;28;20786;-91
2022/12/09 03:36:29;;;;;;;2.70;1.88;;;;;;;;;;5040813;28;20131;-90
2022/12/09 03:38:55;;;;;;;4.35;3.95;;;;;;;;;;5043385;28;20048;-90
2022/12/09 03:41:26;;;;;;;3.65;3.45;;;;;;;;;;5061697;28;20053;-90
2022/12/09 03:43:57;;;;;;;2.25;2.15;;;;;;;;;;5059350;28;20391;-90
2022/12/09 03:46:24;;;;;;;2.55;2.38;;;;;;;;;;5056684;28;20079;-90
2022/12/09 03:48:50;;;;;;;2.20;2.10;;;;;;;;;;5055012;28;20074;-90
2022/12/09 03:51:19;;;;;;;2.42;2.33;;;;;;;;;;5054537;28;20087;-90
2022/12/09 03:53:48;;;;;;;2.33;1.83;;;;;;;;;;5054195;28;20052;-89
2022/12/09 03:56:19;;;;;;;2.55;2.40;;;;;;;;;;5053352;28;20057;-89
2022/12/09 03:58:46;;;;;;;1.13;1.13;;;;;;;;;;5033911;28;20049;-90
2022/12/09 04:01:15;;;;;;;4.43;2.28;;;;;;;;;;5037725;28;20053;-90
2022/12/09 04:03:43;;;;;;;1.77;1.67;;;;;;;;;;5054388;28;20048;-90
2022/12/09 04:06:10;;;;;;;3.35;3.05;;;;;;;;;;5054028;28;20395;-90
2022/12/09 04:08:36;;;;;;;2.78;2.53;;;;;;;;;;5053964;28;20179;-90
2022/12/09 04:11:03;;;;;;;3.00;2.85;;;;;;;;;;5054394;28;20049;-91
2022/12/09 04:13:29;;;;;;;4.97;4.72;;;;;;;;;;5054504;28;20048;-90
2022/12/09 04:15:56;;;;;;;5.75;5.45;;;;;;;;;;5054228;28;20056;-90
2022/12/09 04:18:24;;;;;;;5.05;3.22;;;;;;;;;;5067553;28;20078;-90
2022/12/09 04:20:50;;;;;;;3.03;2.83;;;;;;;;;;5073949;28;20048;-89
2022/12/09 04:23:17;;;;;;;4.88;3.13;;;;;;;;;;5073726;28;20049;-90
2022/12/09 04:25:43;;;;;;;3.78;3.58;;;;;;;;;;5073560;28;20075;-90
2022/12/09 04:28:09;;;;;;;2.40;2.30;;;;;;;;;;5058957;28;20049;-90
2022/12/09 04:30:36;;;;;;;2.10;1.98;;;;;;;;;;5053636;28;20445;-90
2022/12/09 04:33:02;;;;;;;2.92;2.63;;;;;;;;;;5053897;28;20049;-90
2022/12/09 04:35:30;;;;;;;2.10;2.00;;;;;;;;;;5053653;28;20118;-90
2022/12/09 04:37:57;;;;;;;2.10;1.90;;;;;;;;;;5053966;28;20053;-90
2022/12/09 04:40:23;;;;;;;4.47;4.18;;;;;;;;;;5053342;28;20048;-90
2022/12/09 04:42:50;;;;;;;1.92;1.83;;;;;;;;;;5042538;28;20049;-90
2022/12/09 04:45:16;;;;;;;1.70;1.60;;;;;;;;;;5033550;28;20561;-90
2022/12/09 04:47:43;;;;;;;1.42;1.33;;;;;;;;;;5043690;28;20095;-90
2022/12/09 04:50:10;;;;;;;3.50;3.30;;;;;;;;;;5047925;28;20045;-90
2022/12/09 04:52:38;;;;;;;3.88;3.58;;;;;;;;;;5042989;28;20087;-90
2022/12/09 04:55:05;;;;;;;1.85;1.75;;;;;;;;;;5052932;28;20099;-90
2022/12/09 04:57:31;;;;;;;1.25;1.23;;;;;;;;;;5053242;28;20131;-90
2022/12/09 04:59:58;;;;;;;3.22;3.00;;;;;;;;;;5053333;28;20128;-90
2022/12/09 05:02:24;;;;;;;2.58;2.40;;;;;;;;;;5046459;28;20045;-89
2022/12/09 05:04:51;;;;;;;5.00;4.57;;;;;;;;;;5032764;28;20572;-89
2022/12/09 05:07:17;;;;;;;3.35;3.15;;;;;;;;;;5033099;28;20049;-90
2022/12/09 05:09:45;;;;;;;3.85;3.55;;;;;;;;;;5032899;28;20053;-90
2022/12/09 05:12:11;;;;;;;2.22;2.03;;;;;;;;;;5032374;28;20107;-90
2022/12/09 05:14:38;;;;;;;4.80;2.47;;;;;;;;;;5033414;28;20490;-90
2022/12/09 05:17:06;;;;;;;4.25;3.95;;;;;;;;;;5036185;28;20098;-90
2022/12/09 05:19:32;;;;;;;3.40;3.20;;;;;;;;;;5053021;28;20048;-90
2022/12/09 05:21:59;;;;;;;6.15;3.15;;;;;;;;;;5053472;28;20057;-89
2022/12/09 05:24:25;;;;;;;3.55;2.03;;;;;;;;;;5072331;28;20550;-90
2022/12/09 05:26:53;;;;;;;5.03;4.60;;;;;;;;;;5040952;28;20099;-90
2022/12/09 05:29:19;;;;;;;5.05;4.75;;;;;;;;;;5050259;28;20110;-90
2022/12/09 05:31:46;;;;;;;3.15;2.95;;;;;;;;;;5052613;28;20486;-90
2022/12/09 05:34:13;;;;;;;4.03;3.83;;;;;;;;;;5032790;28;20100;-90
2022/12/09 05:36:39;;;;;;;2.03;1.92;;;;;;;;;;5046000;28;20122;-90
2022/12/09 05:39:06;;;;;;;3.65;3.35;;;;;;;;;;5051883;28;20072;-90
2022/12/09 05:41:32;;;;;;;3.85;3.55;;;;;;;;;;5052158;28;20046;-91
2022/12/09 05:44:00;;;;;;;8.52;7.88;;;;;;;;;;5052101;28;20061;-91
2022/12/09 05:46:28;;;;;;;6.82;6.13;;;;;;;;;;5052485;28;20102;-91
2022/12/09 05:48:54;;;;;;;2.30;2.20;;;;;;;;;;5052622;28;20122;-90
2022/12/09 05:51:22;;;;;;;5.10;3.35;;;;;;;;;;5057000;28;20057;-91
2022/12/09 05:53:49;;;;;;;3.95;3.67;;;;;;;;;;5061205;28;20418;-91
2022/12/09 05:56:15;;;;;;;4.40;4.10;;;;;;;;;;5055097;28;20061;-91
2022/12/09 05:58:42;;;;;;;17.33;5.30;;;;;;;;;;5038456;28;20132;-91
2022/12/09 06:01:10;;;;;;;4.70;4.40;;;;;;;;;;5044370;28;20048;-91
2022/12/09 06:03:37;;;;;;;4.68;3.15;;;;;;;;;;5051939;28;20049;-91
2022/12/09 06:06:08;;;;;;;3.75;3.45;;;;;;;;;;5052350;28;20452;-91
2022/12/09 06:08:34;;;;;;;7.90;4.10;;;;;;;;;;5051912;28;20048;-91
2022/12/09 06:11:01;;;;;;;5.38;5.03;;;;;;;;;;5052302;28;20057;-90
2022/12/09 06:13:27;;;;;;;4.10;3.42;;;;;;;;;;5052339;28;20049;-90
2022/12/09 06:15:54;;;;;;;5.25;4.78;;;;;;;;;;5051780;28;20099;-90
2022/12/09 06:18:22;;;;;;;2.45;2.17;;;;;;;;;;5041091;28;20427;-91
2022/12/09 06:20:48;;;;;;;5.25;4.72;;;;;;;;;;5031660;28;20045;-90
2022/12/09 06:23:15;;;;;;;12.85;5.68;;;;;;;;;;5033415;28;20056;-91
2022/12/09 06:25:43;;;;;;;7.10;5.60;;;;;;;;;;5036050;28;20102;-90
2022/12/09 06:28:09;;;;;;;4.82;3.40;;;;;;;;;;5036123;28;20087;-91
2022/12/09 06:30:36;;;;;;;5.32;3.88;;;;;;;;;;5035708;28;20053;-90
2022/12/09 06:33:02;;;;;;;5.18;4.88;;;;;;;;;;5042735;28;20045;-90
2022/12/09 06:35:30;;;;;;;4.25;3.53;;;;;;;;;;5047677;28;20567;-90
2022/12/09 06:37:57;;;;;;;18.73;4.07;;;;;;;;;;5049442;28;20380;-91
2022/12/09 06:40:23;;;;;;;2.78;2.58;;;;;;;;;;5049906;28;20733;-89
2022/12/09 06:42:50;;;;;;;2.30;2.20;;;;;;;;;;5050277;28;20461;-90
2022/12/09 06:45:16;;;;;;;2.45;2.35;;;;;;;;;;5045028;28;20122;-91
2022/12/09 06:47:43;;;;;;;2.97;2.75;;;;;;;;;;5051461;28;20093;-91
2022/12/09 06:50:10;;;;;;;4.22;3.55;;;;;;;;;;5035249;28;20099;-92
2022/12/09 06:52:38;;;;;;;5.50;5.20;;;;;;;;;;5038191;28;20575;-92
2022/12/09 06:55:05;;;;;;;6.00;4.60;;;;;;;;;;5055491;28;20049;-91
2022/12/09 06:57:32;;;;;;;3.35;3.15;;;;;;;;;;5055945;28;20560;-92
2022/12/09 06:59:58;;;;;;;6.72;4.32;;;;;;;;;;5056171;28;20095;-92
2022/12/09 07:02:25;;;;;;;4.07;3.67;;;;;;;;;;5049669;28;20136;-92
2022/12/09 07:04:54;;;;;;;3.75;3.55;;;;;;;;;;5036351;28;20050;-92
2022/12/09 07:07:21;;;;;;;6.30;5.95;;;;;;;;;;5036506;28;20107;-92
2022/12/09 07:09:49;;;;;;;6.45;4.18;;;;;;;;;;5036478;28;20049;-92
2022/12/09 07:12:15;;;;;;;3.70;3.42;;;;;;;;;;5036355;28;20115;-92
2022/12/09 07:14:42;;;;;;;3.50;3.30;;;;;;;;;;5048357;28;20513;-93
2022/12/09 07:17:14;;;;;;;3.03;2.80;;;;;;;;;;5055952;28;20045;-91
2022/12/09 07:19:41;;;;;;;8.45;4.03;;;;;;;;;;5055377;28;20571;-92
2022/12/09 07:22:07;;;;;;;3.50;3.20;;;;;;;;;;5055391;28;20107;-91
2022/12/09 07:24:34;;;;;;;5.00;4.68;;;;;;;;;;5055664;28;20072;-92
2022/12/09 07:27:02;;;;;;;5.05;4.68;;;;;;;;;;5055532;28;20100;-92
2022/12/09 07:29:28;;;;;;;5.68;5.28;;;;;;;;;;5054730;28;20053;-91
2022/12/09 07:31:54;;;;;;;6.00;5.70;;;;;;;;;;5055013;28;20044;-92
2022/12/09 07:34:21;;;;;;;2.95;2.75;;;;;;;;;;5054022;28;20103;-90
2022/12/09 07:36:47;;;;;;;5.47;5.03;;;;;;;;;;5054978;28;20045;-90
2022/12/09 07:39:15;;;;;;;10.63;7.28;;;;;;;;;;5054789;28;20049;-91
2022/12/09 07:41:42;;;;;;;5.22;4.95;;;;;;;;;;5055204;28;20494;-92
2022/12/09 07:44:10;;;;;;;5.57;5.10;;;;;;;;;;5054878;28;20453;-91
2022/12/09 07:46:37;;;;;;;7.63;6.20;;;;;;;;;;5053164;28;20127;-91
2022/12/09 07:49:05;;;;;;;7.50;4.88;;;;;;;;;;5057354;28;20465;-92
2022/12/09 07:51:31;;;;;;;4.55;4.25;;;;;;;;;;5054919;28;20106;-92
2022/12/09 07:53:58;;;;;;;8.65;3.60;;;;;;;;;;5045670;28;20046;-91
2022/12/09 07:56:26;;;;;;;10.80;5.05;;;;;;;;;;5034470;28;20049;-92
2022/12/09 07:58:53;;;;;;;3.42;3.05;;;;;;;;;;5034435;28;20107;-91
2022/12/09 08:01:22;;;;;;;4.65;4.35;;;;;;;;;;5034675;28;20050;-92
2022/12/09 08:03:48;;;;;;;5.40;5.03;;;;;;;;;;5061112;28;20059;-92
2022/12/09 08:06:16;;;;;;;3.47;3.17;;;;;;;;;;5058869;28;20053;-92
2022/12/09 08:08:42;;;;;;;3.15;2.95;;;;;;;;;;5055709;28;20099;-91
2022/12/09 08:11:09;;;;;;;3.72;3.40;;;;;;;;;;5054393;28;20049;-91
2022/12/09 08:13:36;;;;;;;4.88;4.57;;;;;;;;;;5054258;28;20102;-91
2022/12/09 08:16:03;;;;;;;3.63;3.33;;;;;;;;;;5071111;28;20323;-88
2022/12/09 08:18:31;;;;;;;8.20;4.97;;;;;;;;;;5073923;28;20052;-89
2022/12/09 08:20:58;;;;;;;6.13;4.25;;;;;;;;;;5034227;28;20476;-90
2022/12/09 08:23:24;;;;;;;4.25;4.03;;;;;;;;;;5034068;28;20111;-89
2022/12/09 08:25:52;;;;;;;7.13;3.60;;;;;;;;;;5033855;28;20462;-90
2022/12/09 08:28:18;;;;;;;4.22;4.00;;;;;;;;;;5063194;28;20117;-91
2022/12/09 08:30:45;;;;;;;4.68;4.38;;;;;;;;;;5055217;28;20053;-92
2022/12/09 08:33:11;;;;;;;6.00;5.50;;;;;;;;;;5053622;28;20490;-89
2022/12/09 08:35:39;;;;;;;5.68;5.32;;;;;;;;;;5052409;28;20049;-91
2022/12/09 08:38:06;;;;;;;9.13;3.13;;;;;;;;;;5050481;28;20099;-91
2022/12/09 08:40:33;;;;;;;10.95;4.10;;;;;;;;;;5049044;28;20447;-90
2022/12/09 08:42:59;;;;;;;3.72;3.53;;;;;;;;;;5055543;28;20488;-90
2022/12/09 08:45:26;;;;;;;6.05;5.55;;;;;;;;;;5070831;28;20076;-91
2022/12/09 08:47:52;;;;;;;5.35;4.50;;;;;;;;;;5053817;28;20048;-91
2022/12/09 08:50:19;;;;;;;5.75;4.13;;;;;;;;;;5052572;28;20130;-91
2022/12/09 08:52:47;;;;;;;4.38;3.90;;;;;;;;;;5061699;28;20045;-91
2022/12/09 08:55:13;;;;;;;7.28;4.78;;;;;;;;;;5071537;28;20052;-91
2022/12/09 08:57:40;;;;;;;4.60;4.28;;;;;;;;;;5048020;28;20421;-91
2022/12/09 09:00:07;;;;;;;5.47;5.07;;;;;;;;;;5052506;28;20095;-90
2022/12/09 09:02:33;;;;;;;14.15;5.82;;;;;;;;;;5053034;28;20490;-90
2022/12/09 09:05:00;;;;;;;7.72;7.32;;;;;;;;;;5053230;28;20049;-89
2022/12/09 09:07:26;;;;;;;5.70;5.22;;;;;;;;;;5052894;28;20053;-92
2022/12/09 09:09:54;;;;;;;6.03;4.57;;;;;;;;;;5052903;28;20044;-89
2022/12/09 09:12:21;;;;;;;4.70;4.40;;;;;;;;;;5053188;28;20049;-90
2022/12/09 09:14:47;;;;;;;7.70;4.95;;;;;;;;;;5053009;28;20502;-89
2022/12/09 09:17:14;;;;;;;3.72;3.53;;;;;;;;;;5052991;28;20049;-91
2022/12/09 09:19:41;;;;;;;5.65;5.25;;;;;;;;;;5052472;28;20056;-91
2022/12/09 09:22:07;;;;;;;4.28;3.95;;;;;;;;;;5053104;28;20095;-90
2022/12/09 09:24:34;;;;;;;5.95;5.65;;;;;;;;;;5052852;28;20052;-90
2022/12/09 09:27:02;;;;;;;6.75;5.65;;;;;;;;;;5041210;28;20057;-90
2022/12/09 09:29:29;;;;;;;4.90;4.45;;;;;;;;;;5032444;28;20046;-91
2022/12/09 09:31:56;;;;;;;12.00;4.25;;;;;;;;;;5033002;28;20842;-90
2022/12/09 09:34:23;;;;;;;5.53;5.25;;;;;;;;;;5055589;28;20110;-90
2022/12/09 09:36:50;;;;;;;5.13;4.85;;;;;;;;;;5064923;28;20052;-90
2022/12/09 09:39:16;;;;;;;6.05;5.72;;;;;;;;;;5053817;28;20049;-90
2022/12/09 09:41:45;;;;;;;4.50;4.30;;;;;;;;;;5047257;28;20091;-90
2022/12/09 09:44:16;;;;;;;5.05;3.15;;;;;;;;;;5039587;28;20099;-90
2022/12/09 09:46:44;;;;;;;3.75;3.55;;;;;;;;;;5052257;28;20458;-90
2022/12/09 09:49:13;;;;;;;4.30;3.92;;;;;;;;;;5052291;28;20049;-90
2022/12/09 09:51:39;;;;;;;6.53;6.22;;;;;;;;;;5052553;28;20045;-90
2022/12/09 09:54:08;;;;;;;4.95;4.55;;;;;;;;;;5052112;28;20110;-89
2022/12/09 09:56:36;;;;;;;4.03;3.83;;;;;;;;;;5052532;28;20045;-90
2022/12/09 09:59:09;;;;;;;5.20;4.90;;;;;;;;;;5046145;28;20045;-90
2022/12/09 10:01:37;;;;;;;4.90;4.50;;;;;;;;;;5032633;28;20106;-90
2022/12/09 10:04:07;;;;;;;6.95;5.35;;;;;;;;;;5032254;28;20549;-90
2022/12/09 10:06:43;;;;;;;3.90;3.17;;;;;;;;;;5032452;28;20076;-90
2022/12/09 10:09:13;;;;;;;3.35;3.15;;;;;;;;;;5032517;28;20053;-91
2022/12/09 10:11:47;;;;;;;2.60;2.47;;;;;;;;;;5051604;28;20399;-91
2022/12/09 10:14:16;;;;;;;3.05;2.92;;;;;;;;;;5060849;28;20461;-90
2022/12/09 10:16:45;;;;;;;5.40;2.92;;;;;;;;;;5065655;28;20477;-89
2022/12/09 10:19:15;;;;;;;6.57;6.13;;;;;;;;;;5055772;28;20059;-89
2022/12/09 10:21:43;;;;;;;7.20;4.35;;;;;;;;;;5053208;28;20569;-89
2022/12/09 10:24:18;;;;;;;3.63;3.42;;;;;;;;;;5052171;28;20477;-90
2022/12/09 10:26:45;;;;;;;4.45;4.25;;;;;;;;;;5052065;28;20079;-88
2022/12/09 10:29:15;;;;;;;3.85;3.55;;;;;;;;;;5048441;28;20437;-89
2022/12/09 10:31:41;;;;;;;13.30;5.45;;;;;;;;;;5032067;28;20099;-89
2022/12/09 10:34:10;;;;;;;5.22;5.03;;;;;;;;;;5032206;28;20057;-88
2022/12/09 10:36:37;;;;;;;7.20;3.92;;;;;;;;;;5031884;28;20506;-90
2022/12/09 10:39:04;;;;;;;4.55;4.32;;;;;;;;;;5031761;28;20629;-90
2022/12/09 10:44:23;;;;;;;4.32;4.10;;;;;;;;;;5047234;28;20059;-88
2022/12/09 10:46:56;;;;;;;4.43;3.80;;;;;;;;;;5034429;28;20098;-88
2022/12/09 10:49:23;;;;;;;3.60;3.22;;;;;;;;;;5051461;28;20049;-89
2022/12/09 10:51:51;;;;;;;4.40;4.00;;;;;;;;;;5051271;28;20501;-88
2022/12/09 10:54:24;;;;;;;6.30;4.72;;;;;;;;;;5051540;28;20098;-89
2022/12/09 10:57:01;;;;;;;3.63;3.38;;;;;;;;;;5051294;28;20106;-89
2022/12/09 10:59:28;;;;;;;2.15;2.05;;;;;;;;;;5051526;28;20387;-88
2022/12/09 11:01:56;;;;;;;4.78;2.63;;;;;;;;;;5051071;28;20131;-89
2022/12/09 11:04:24;;;;;;;4.60;4.22;;;;;;;;;;5050954;28;20532;-89
2022/12/09 11:06:52;;;;;;;4.32;3.92;;;;;;;;;;5051723;28;20139;-89
2022/12/09 11:09:21;;;;;;;5.13;4.32;;;;;;;;;;5052233;28;20049;-89
2022/12/09 11:11:49;;;;;;;3.72;3.55;;;;;;;;;;5054647;28;20111;-88
2022/12/09 11:14:21;;;;;;;3.58;3.28;;;;;;;;;;5053541;28;20057;-88
2022/12/09 11:16:48;;;;;;;3.95;3.75;;;;;;;;;;5035131;28;20137;-89
2022/12/09 11:19:15;;;;;;;4.63;4.28;;;;;;;;;;5034880;28;20564;-89
2022/12/09 11:21:42;;;;;;;4.40;4.20;;;;;;;;;;5034981;28;20057;-89
2022/12/09 11:24:19;;;;;;;4.10;3.80;;;;;;;;;;5037798;28;20052;-89
2022/12/09 11:26:45;;;;;;;3.15;2.95;;;;;;;;;;5055123;28;20056;-89
2022/12/09 11:29:16;;;;;;;4.38;4.07;;;;;;;;;;5054586;28;20057;-90
2022/12/09 11:31:42;;;;;;;4.60;4.28;;;;;;;;;;5054589;28;20052;-89
2022/12/09 11:34:16;;;;;;;2.83;2.70;;;;;;;;;;5054636;28;20056;-88
2022/12/09 11:36:45;;;;;;;4.28;3.88;;;;;;;;;;5034756;28;20080;-89
2022/12/09 11:39:21;;;;;;;3.90;3.58;;;;;;;;;;5051989;28;20072;-89
2022/12/09 11:44:35;;;;;;;3.38;3.20;;;;;;;;;;5034543;28;20099;-89
2022/12/09 11:47:02;;;;;;;3.33;3.13;;;;;;;;;;5034862;28;20103;-89
2022/12/09 11:49:29;;;;;;;2.90;2.70;;;;;;;;;;5051926;28;20048;-89
2022/12/09 11:52:02;;;;;;;3.70;3.45;;;;;;;;;;5074355;28;20048;-89
2022/12/09 11:54:32;;;;;;;3.08;2.90;;;;;;;;;;5072895;28;20060;-89
2022/12/09 11:56:59;;;;;;;2.92;2.80;;;;;;;;;;5058623;28;20106;-90
2022/12/09 11:59:29;;;;;;;4.13;3.90;;;;;;;;;;5063154;28;20098;-89
2022/12/09 12:01:56;;;;;;;;;;;;;;;;;;5065657;28;20485;-88
2022/12/09 12:04:24;;;;;;;3.42;3.20;;;;;;;;;;5066585;28;19993;-89
2022/12/09 12:06:52;;;;;;;12.45;3.40;;;;;;;;;;5037571;28;20048;-89
2022/12/09 12:09:22;;;;;;;5.57;5.13;;;;;;;;;;5053728;28;20053;-89
2022/12/09 12:11:52;;;;;;;3.95;3.60;;;;;;;;;;5053726;28;20559;-89
2022/12/09 12:14:22;;;;;;;6.07;4.53;;;;;;;;;;5053663;28;20052;-89
2022/12/09 12:16:52;;;;;;;2.88;2.75;;;;;;;;;;5053554;28;20048;-90
2022/12/09 12:19:21;;;;;;;3.25;3.05;;;;;;;;;;5053981;28;20057;-90
2022/12/09 12:21:54;;;;;;;2.47;2.35;;;;;;;;;;5034786;28;20041;-89
2022/12/09 12:24:35;;;;;;;6.20;5.32;;;;;;;;;;5041749;28;20058;-91
2022/12/09 12:27:09;;;;;;;2.55;2.45;;;;;;;;;;5061124;28;20045;-90
2022/12/09 12:29:43;;;;;;;2.65;2.45;;;;;;;;;;5053244;28;20072;-89
2022/12/09 12:32:16;;;;;;;4.40;4.10;;;;;;;;;;5035285;28;20053;-89
2022/12/09 12:34:47;;;;;;;3.50;3.30;;;;;;;;;;5069222;28;20500;-89
2022/12/09 12:37:19;;;;;;;5.28;4.63;;;;;;;;;;5053526;28;20187;-88
2022/12/09 12:39:51;;;;;;;3.63;3.42;;;;;;;;;;5051278;28;20056;-89
2022/12/09 12:42:24;;;;;;;3.80;3.50;;;;;;;;;;5053352;28;20049;-90
2022/12/09 12:47:43;;;;;;;3.03;2.83;;;;;;;;;;5048214;28;20103;-90
2022/12/09 12:50:18;;;;;;;3.03;2.88;;;;;;;;;;5053515;28;20104;-89
2022/12/09 12:52:48;;;;;;;7.30;5.82;;;;;;;;;;5053745;28;20045;-90
2022/12/09 12:55:20;;;;;;;3.22;3.05;;;;;;;;;;5053404;28;20061;-90
2022/12/09 12:57:50;;;;;;;5.13;4.80;;;;;;;;;;5053199;28;20056;-89
2022/12/09 13:00:18;;;;;;;4.72;4.38;;;;;;;;;;5053062;28;20049;-91
2022/12/09 13:02:49;;;;;;;6.63;6.13;;;;;;;;;;5047468;28;20042;-89
2022/12/09 13:05:20;;;;;;;4.80;4.53;;;;;;;;;;5044571;28;20056;-90
2022/12/09 13:07:50;;;;;;;4.07;3.85;;;;;;;;;;5053077;28;20067;-90
2022/12/09 13:10:20;;;;;;;3.30;3.10;;;;;;;;;;5052996;28;20052;-89
2022/12/09 13:12:57;;;;;;;9.52;5.50;;;;;;;;;;5052948;28;20052;-90
2022/12/09 13:15:30;;;;;;;4.22;4.03;;;;;;;;;;5052769;28;20134;-90
2022/12/09 13:17:59;;;;;;;3.65;3.45;;;;;;;;;;5052577;28;20725;-89
2022/12/09 13:20:28;;;;;;;5.65;5.25;;;;;;;;;;5052460;28;20383;-89
2022/12/09 13:22:57;;;;;;;4.70;4.30;;;;;;;;;;5052905;28;20524;-89
2022/12/09 13:25:29;;;;;;;4.10;3.70;;;;;;;;;;5055228;28;20053;-90
2022/12/09 13:27:59;;;;;;;6.68;2.67;;;;;;;;;;5072770;28;20722;-88
2022/12/09 13:30:30;;;;;;;13.73;4.38;;;;;;;;;;5072281;28;20140;-89
2022/12/09 13:33:11;;;;;;;3.78;3.47;;;;;;;;;;5071961;28;20045;-89
2022/12/09 13:35:40;;;;;;;3.17;2.88;;;;;;;;;;5072508;28;20056;-91
2022/12/09 13:38:23;;;;;;;4.55;3.92;;;;;;;;;;5073119;28;20105;-90
2022/12/09 13:40:50;;;;;;;5.72;5.13;;;;;;;;;;5059048;28;20426;-90
2022/12/09 13:43:21;;;;;;;6.20;3.33;;;;;;;;;;5052314;28;20506;-90
2022/12/09 13:45:51;;;;;;;2.55;2.45;;;;;;;;;;5052594;28;20044;-90
2022/12/09 13:48:36;;;;;;;4.18;3.97;;;;;;;;;;5052881;28;20053;-92
2022/12/09 13:51:03;;;;;;;3.13;3.00;;;;;;;;;;5052488;28;20049;-91
2022/12/09 13:53:31;;;;;;;4.43;4.22;;;;;;;;;;5052603;28;20052;-91
2022/12/09 13:56:00;;;;;;;6.22;3.72;;;;;;;;;;5049815;28;20053;-90
2022/12/09 13:58:36;;;;;;;4.28;4.07;;;;;;;;;;5032916;28;20145;-90
2022/12/09 14:01:08;;;;;;;3.63;3.50;;;;;;;;;;5039404;28;20052;-90
2022/12/09 14:03:40;;;;;;;2.97;2.47;;;;;;;;;;5052620;28;20383;-91
2022/12/09 14:06:16;;;;;;;5.95;3.08;;;;;;;;;;5052515;28;20190;-90
2022/12/09 14:08:46;;;;;;;7.90;7.32;;;;;;;;;;5053129;28;20057;-89
2022/12/09 14:11:31;;;;;;;4.38;4.07;;;;;;;;;;5052649;28;20490;-89
2022/12/09 14:14:30;;;;;;;3.88;3.63;;;;;;;;;;5068377;28;20052;-96
2022/12/09 14:16:59;;;;;;;2.80;2.70;;;;;;;;;;5063914;28;20053;-95
2022/12/09 14:19:49;;;;;;;3.38;3.17;;;;;;;;;;5063396;28;20492;-95
2022/12/09 14:22:44;;;;;;;5.75;4.50;;;;;;;;;;5081970;28;20056;-96
2022/12/09 14:28:42;;;;;;;3.85;3.55;;;;;;;;;;5069498;28;20048;-96
2022/12/09 14:31:18;;;;;;;2.63;2.42;;;;;;;;;;5075649;28;20052;-96
2022/12/09 14:34:16;;;;;;;4.13;3.92;;;;;;;;;;5082165;28;20077;-96
2022/12/09 14:36:48;;;;;;;4.63;4.32;;;;;;;;;;5088753;28;20052;-95
2022/12/09 14:39:18;;;;;;;10.07;6.97;;;;;;;;;;5047716;28;20080;-95
2022/12/09 14:41:50;;;;;;;5.93;5.22;;;;;;;;;;5044969;28;20049;-94
2022/12/09 14:44:25;;;;;;;3.67;3.40;;;;;;;;;;5044408;28;20046;-96
2022/12/09 14:46:52;;;;;;;4.57;3.88;;;;;;;;;;5039114;28;20099;-95
2022/12/09 14:49:21;;;;;;;3.38;3.17;;;;;;;;;;5018045;28;20499;-92
2022/12/09 14:51:49;;;;;;;3.85;3.60;;;;;;;;;;5017267;28;20045;-94
2022/12/09 14:54:18;;;;;;;4.00;3.78;;;;;;;;;;5019799;28;20053;-96
2022/12/09 14:56:46;;;;;;;5.75;5.35;;;;;;;;;;5024502;28;20049;-96
2022/12/09 14:59:16;;;;;;;4.30;4.00;;;;;;;;;;5014002;28;20057;-96
2022/12/09 15:01:55;;;;;;;5.38;3.05;;;;;;;;;;5026607;28;20073;-96
2022/12/09 15:04:33;;;;;;;5.32;5.03;;;;;;;;;;5023507;28;20053;-96